Time,TemperatureF,DewpointF,PressureIn,WindDirection,WindDirectionDegrees,WindSpeedMPH,WindSpeedGustMPH,Humidity,HourlyPrecipIn,Conditions,Clouds,dailyrainin,SoftwareType,DateUTC
2013-03-18 10:26:00,0.0,0.0,29.53,North,0,0.0,0.0,0,0.00,,---,0.00,VWS V14.01,2013-03-18 14:26:00,
2013-03-18 15:33:00,0.0,0.0,29.52,ESE,121,0.0,0.0,0,0.00,,---,0.00,VWS V14.01,2013-03-18 19:33:00,
2013-03-18 15:38:00,34.3,33.5,29.52,ESE,120,0.0,1.0,97,0.00,,---,0.00,VWS V14.01,2013-03-18 19:38:00,
2013-03-18 15:43:00,34.3,33.5,29.52,ESE,120,0.0,0.0,97,0.00,,---,0.00,VWS V14.01,2013-03-18 19:43:00,
2013-03-18 15:48:00,34.3,33.5,29.51,ESE,120,0.0,0.0,97,0.00,,---,0.00,VWS V14.01,2013-03-18 19:48:00,
2013-03-18 15:53:00,34.4,33.6,29.51,ESE,120,0.0,0.0,97,0.00,,---,0.00,VWS V14.01,2013-03-18 19:53:00,
2013-03-18 15:58:00,34.4,33.6,29.51,ESE,120,0.0,0.0,97,0.00,,---,0.00,VWS V14.01,2013-03-18 19:58:00,
2013-03-18 16:03:00,34.4,33.6,29.52,ESE,120,0.0,1.0,97,0.00,,---,0.00,VWS V14.01,2013-03-18 20:03:00,
2013-03-18 16:08:00,34.4,33.6,29.52,ESE,120,0.0,0.0,97,0.00,,---,0.00,VWS V14.01,2013-03-18 20:08:00,
2013-03-18 16:13:00,34.5,33.7,29.52,ESE,120,0.0,0.0,97,0.00,,---,0.00,VWS V14.01,2013-03-18 20:13:00,
2013-03-18 16:18:00,34.6,33.8,29.51,ESE,120,0.0,0.0,97,0.00,,---,0.00,VWS V14.01,2013-03-18 20:18:00,
2013-03-18 16:23:00,34.6,33.8,29.51,ESE,120,0.0,0.0,97,0.00,,---,0.00,VWS V14.01,2013-03-18 20:23:00,
2013-03-18 16:28:00,34.9,34.1,29.51,ESE,120,0.0,0.0,97,0.01,,---,0.01,VWS V14.01,2013-03-18 20:28:00,
2013-03-18 16:33:00,35.0,34.2,29.50,ESE,121,0.0,0.0,97,0.01,,---,0.01,VWS V14.01,2013-03-18 20:33:00,
2013-03-18 16:38:00,34.9,34.1,29.50,ESE,121,0.0,0.0,97,0.01,,---,0.01,VWS V14.01,2013-03-18 20:38:00,
2013-03-18 16:43:00,34.9,34.1,29.50,ESE,121,0.0,0.0,97,0.01,,---,0.01,VWS V14.01,2013-03-18 20:43:00,
2013-03-18 16:48:00,35.0,34.2,29.50,ESE,121,0.0,0.0,97,0.01,,---,0.01,VWS V14.01,2013-03-18 20:48:00,
2013-03-18 16:53:00,35.0,34.2,29.50,South,169,0.0,2.0,97,0.01,,---,0.01,VWS V14.01,2013-03-18 20:53:00,
2013-03-18 16:58:00,34.9,34.1,29.50,South,169,0.0,0.0,97,0.01,,---,0.01,VWS V14.01,2013-03-18 20:58:00,
2013-03-18 17:03:00,34.9,34.1,29.50,South,169,0.0,1.0,97,0.01,,---,0.01,VWS V14.01,2013-03-18 21:03:00,
2013-03-18 17:08:00,34.9,34.1,29.50,South,169,0.0,1.0,97,0.01,,---,0.01,VWS V14.01,2013-03-18 21:08:00,
2013-03-18 17:13:00,35.0,34.2,29.50,South,169,1.0,1.0,97,0.01,,---,0.01,VWS V14.01,2013-03-18 21:13:00,
2013-03-18 17:18:00,35.1,34.3,29.50,South,169,1.0,1.0,97,0.02,,---,0.02,VWS V14.01,2013-03-18 21:18:00,
2013-03-18 17:23:00,35.2,34.4,29.50,SSW,200,0.0,0.0,97,0.02,,---,0.02,VWS V14.01,2013-03-18 21:23:00,
2013-03-18 17:28:00,35.3,34.5,29.50,SSW,200,0.0,1.0,97,0.01,,---,0.02,VWS V14.01,2013-03-18 21:28:00,
2013-03-18 17:33:00,35.2,34.4,29.51,SW,216,0.0,4.0,97,0.01,,---,0.02,VWS V14.01,2013-03-18 21:33:00,
2013-03-18 17:38:00,35.1,34.3,29.51,SW,216,0.0,2.0,97,0.01,,---,0.02,VWS V14.01,2013-03-18 21:38:00,
2013-03-18 17:43:00,35.0,34.2,29.51,SW,216,0.0,1.0,97,0.01,,---,0.02,VWS V14.01,2013-03-18 21:43:00,
2013-03-18 17:48:00,35.0,34.2,29.51,SW,216,0.0,0.0,97,0.01,,---,0.02,VWS V14.01,2013-03-18 21:48:00,
2013-03-18 17:52:00,35.1,34.3,29.51,WSW,238,6.0,6.0,97,0.01,,---,0.02,VWS V14.01,2013-03-18 21:52:00,
2013-03-18 17:57:00,35.1,34.3,29.51,WSW,239,0.0,2.0,97,0.01,,---,0.02,VWS V14.01,2013-03-18 21:57:00,
2013-03-18 18:03:00,35.0,34.2,29.51,WSW,239,0.0,3.0,97,0.01,,---,0.02,VWS V14.01,2013-03-18 22:03:00,
2013-03-18 18:07:00,35.0,34.2,29.51,WSW,239,0.0,3.0,97,0.01,,---,0.02,VWS V14.01,2013-03-18 22:07:00,
2013-03-18 18:12:00,35.0,34.2,29.51,South,190,1.0,2.0,97,0.01,,---,0.02,VWS V14.01,2013-03-18 22:12:00,
2013-03-18 18:17:00,35.0,34.2,29.52,West,271,1.0,3.0,97,0.01,,---,0.02,VWS V14.01,2013-03-18 22:17:00,
2013-03-18 18:22:00,35.0,34.2,29.52,SW,236,1.0,5.0,97,0.00,,---,0.02,VWS V14.01,2013-03-18 22:22:00,
2013-03-18 18:28:00,35.0,34.2,29.52,South,191,0.0,3.0,97,0.00,,---,0.02,VWS V14.01,2013-03-18 22:28:00,
2013-03-18 18:33:00,35.0,34.2,29.53,SW,236,4.0,4.0,97,0.00,,---,0.02,VWS V14.01,2013-03-18 22:33:00,
2013-03-18 18:38:00,34.9,34.1,29.53,WSW,248,2.0,5.0,97,0.00,,---,0.02,VWS V14.01,2013-03-18 22:38:00,
2013-03-18 18:43:00,35.0,34.0,29.53,SW,233,1.0,5.0,96,0.00,,---,0.02,VWS V14.01,2013-03-18 22:43:00,
2013-03-18 18:48:00,34.9,33.9,29.53,WSW,240,0.0,2.0,96,0.00,,---,0.02,VWS V14.01,2013-03-18 22:48:00,
2013-03-18 18:52:00,34.9,33.9,29.53,WSW,249,0.0,4.0,96,0.00,,---,0.02,VWS V14.01,2013-03-18 22:52:00,
2013-03-18 18:57:00,34.9,33.9,29.53,WSW,243,0.0,3.0,96,0.00,,---,0.02,VWS V14.01,2013-03-18 22:57:00,
2013-03-18 19:02:00,34.8,33.8,29.53,WSW,243,2.0,4.0,96,0.00,,---,0.02,VWS V14.01,2013-03-18 23:02:00,
2013-03-18 19:08:00,34.8,33.8,29.53,SW,236,0.0,4.0,96,0.00,,---,0.02,VWS V14.01,2013-03-18 23:08:00,
2013-03-18 19:13:00,34.7,33.7,29.53,West,264,2.0,3.0,96,0.00,,---,0.02,VWS V14.01,2013-03-18 23:13:00,
2013-03-18 19:17:00,34.6,33.6,29.55,WSW,257,0.0,2.0,96,0.00,,---,0.02,VWS V14.01,2013-03-18 23:17:00,
2013-03-18 19:22:00,34.4,33.4,29.55,WSW,253,1.0,4.0,96,0.00,,---,0.02,VWS V14.01,2013-03-18 23:22:00,
2013-03-18 19:27:00,34.3,33.3,29.55,WSW,248,1.0,3.0,96,0.00,,---,0.02,VWS V14.01,2013-03-18 23:27:00,
2013-03-18 19:32:00,34.1,33.1,29.55,SW,223,0.0,5.0,96,0.00,,---,0.02,VWS V14.01,2013-03-18 23:32:00,
2013-03-18 19:37:00,34.0,33.0,29.55,WSW,243,1.0,4.0,96,0.00,,---,0.02,VWS V14.01,2013-03-18 23:37:00,
2013-03-18 19:42:00,33.9,32.9,29.55,WSW,243,3.0,5.0,96,0.00,,---,0.02,VWS V14.01,2013-03-18 23:42:00,
2013-03-18 19:47:00,33.8,32.8,29.56,WSW,244,0.0,3.0,96,0.00,,---,0.02,VWS V14.01,2013-03-18 23:47:00,
2013-03-18 19:52:00,33.8,32.8,29.56,SW,223,1.0,3.0,96,0.00,,---,0.02,VWS V14.01,2013-03-18 23:52:00,
2013-03-18 19:57:00,33.8,33.0,29.56,SW,223,1.0,2.0,97,0.00,,---,0.02,VWS V14.01,2013-03-18 23:57:00,
2013-03-18 20:02:00,33.8,33.0,29.57,SW,234,1.0,5.0,97,0.00,,---,0.02,VWS V14.01,2013-03-19 00:02:00,
2013-03-18 20:07:00,33.8,33.0,29.57,WSW,243,2.0,4.0,97,0.00,,---,0.02,VWS V14.01,2013-03-19 00:07:00,
2013-03-18 20:12:00,33.8,33.0,29.57,WSW,243,0.0,3.0,97,0.00,,---,0.02,VWS V14.01,2013-03-19 00:12:00,
2013-03-18 20:18:00,33.8,33.0,29.58,WSW,257,0.0,6.0,97,0.00,,---,0.02,VWS V14.01,2013-03-19 00:18:00,
2013-03-18 20:23:00,33.8,33.0,29.58,WSW,248,0.0,3.0,97,0.00,,---,0.02,VWS V14.01,2013-03-19 00:23:00,
2013-03-18 20:28:00,33.8,33.0,29.58,WSW,248,0.0,3.0,97,0.00,,---,0.02,VWS V14.01,2013-03-19 00:28:00,
2013-03-18 20:33:00,33.8,33.0,29.58,WSW,248,4.0,4.0,97,0.00,,---,0.02,VWS V14.01,2013-03-19 00:33:00,
2013-03-18 20:38:00,33.8,33.0,29.58,SW,220,1.0,1.0,97,0.00,,---,0.02,VWS V14.01,2013-03-19 00:38:00,
2013-03-18 20:43:00,33.9,32.9,29.58,SW,216,0.0,0.0,96,0.00,,---,0.02,VWS V14.01,2013-03-19 00:43:00,
2013-03-18 20:48:00,33.9,32.9,29.59,SW,216,0.0,1.0,96,0.00,,---,0.02,VWS V14.01,2013-03-19 00:48:00,
2013-03-18 20:52:00,33.9,32.9,29.59,SW,216,0.0,1.0,96,0.00,,---,0.02,VWS V14.01,2013-03-19 00:52:00,
2013-03-18 20:57:00,33.9,32.9,29.59,SSE,150,0.0,3.0,96,0.00,,---,0.02,VWS V14.01,2013-03-19 00:57:00,
2013-03-18 21:02:00,33.9,32.9,29.59,South,176,0.0,3.0,96,0.00,,---,0.02,VWS V14.01,2013-03-19 01:02:00,
2013-03-18 21:07:00,33.9,32.9,29.59,SW,236,0.0,4.0,96,0.00,,---,0.02,VWS V14.01,2013-03-19 01:07:00,
2013-03-18 21:12:00,34.0,33.0,29.59,SW,236,0.0,3.0,96,0.00,,---,0.02,VWS V14.01,2013-03-19 01:12:00,
2013-03-18 21:17:00,34.0,33.0,29.59,WSW,252,0.0,5.0,96,0.00,,---,0.02,VWS V14.01,2013-03-19 01:17:00,
2013-03-18 21:22:00,34.1,33.1,29.59,WSW,252,0.0,2.0,96,0.00,,---,0.02,VWS V14.01,2013-03-19 01:22:00,
2013-03-18 21:27:00,34.1,33.1,29.59,WSW,250,1.0,4.0,96,0.00,,---,0.02,VWS V14.01,2013-03-19 01:27:00,
2013-03-18 21:32:00,34.2,33.2,29.59,WSW,245,0.0,4.0,96,0.00,,---,0.02,VWS V14.01,2013-03-19 01:32:00,
2013-03-18 21:38:00,34.2,33.2,29.59,South,174,0.0,1.0,96,0.00,,---,0.02,VWS V14.01,2013-03-19 01:38:00,
2013-03-18 21:43:00,34.3,33.3,29.59,SW,226,1.0,4.0,96,0.00,,---,0.02,VWS V14.01,2013-03-19 01:43:00,
2013-03-18 21:48:00,34.3,33.3,29.59,SW,226,0.0,1.0,96,0.01,,---,0.03,VWS V14.01,2013-03-19 01:48:00,
2013-03-18 21:53:00,34.3,33.3,29.59,SSE,148,0.0,3.0,96,0.01,,---,0.03,VWS V14.01,2013-03-19 01:53:00,
2013-03-18 21:58:00,34.3,33.3,29.59,WSW,242,0.0,3.0,96,0.01,,---,0.03,VWS V14.01,2013-03-19 01:58:00,
2013-03-18 22:03:00,34.3,33.3,29.59,WSW,243,2.0,3.0,96,0.01,,---,0.03,VWS V14.01,2013-03-19 02:03:00,
2013-03-18 22:07:00,34.3,33.3,29.59,WSW,241,0.0,4.0,96,0.01,,---,0.03,VWS V14.01,2013-03-19 02:07:00,
2013-03-18 22:12:00,34.3,33.3,29.59,WSW,240,2.0,5.0,96,0.01,,---,0.03,VWS V14.01,2013-03-19 02:12:00,
2013-03-18 22:17:00,34.2,33.2,29.60,WSW,241,3.0,10.0,96,0.01,,---,0.03,VWS V14.01,2013-03-19 02:17:00,
2013-03-18 22:22:00,33.9,32.9,29.60,WSW,250,3.0,8.0,96,0.01,,---,0.03,VWS V14.01,2013-03-19 02:22:00,
2013-03-18 22:27:00,33.6,32.6,29.60,West,262,5.0,7.0,96,0.01,,---,0.03,VWS V14.01,2013-03-19 02:27:00,
2013-03-18 22:32:00,33.3,32.0,29.61,WSW,258,0.0,6.0,95,0.01,,---,0.03,VWS V14.01,2013-03-19 02:32:00,
2013-03-18 22:37:00,33.0,31.7,29.61,SW,225,3.0,4.0,95,0.01,,---,0.03,VWS V14.01,2013-03-19 02:37:00,
2013-03-18 22:42:00,32.9,31.6,29.61,WSW,253,0.0,5.0,95,0.01,,---,0.03,VWS V14.01,2013-03-19 02:42:00,
2013-03-18 22:47:00,32.7,31.4,29.61,West,274,5.0,11.0,95,0.01,,---,0.03,VWS V14.01,2013-03-19 02:47:00,
2013-03-18 22:52:00,32.5,31.0,29.61,SW,234,0.0,8.0,94,0.00,,---,0.03,VWS V14.01,2013-03-19 02:52:00,
2013-03-18 22:57:00,32.3,30.5,29.61,WSW,248,0.0,7.0,93,0.00,,---,0.03,VWS V14.01,2013-03-19 02:57:00,
2013-03-18 23:02:00,32.1,29.8,29.61,WSW,240,5.0,11.0,91,0.00,,---,0.03,VWS V14.01,2013-03-19 03:02:00,
2013-03-18 23:07:00,32.1,29.5,29.61,SE,141,2.0,11.0,90,0.00,,---,0.03,VWS V14.01,2013-03-19 03:07:00,
2013-03-18 23:12:00,31.9,28.8,29.61,SW,231,2.0,6.0,88,0.00,,---,0.03,VWS V14.01,2013-03-19 03:12:00,
2013-03-18 23:17:00,31.6,28.2,29.62,West,265,8.0,8.0,87,0.00,,---,0.03,VWS V14.01,2013-03-19 03:17:00,
2013-03-18 23:22:00,31.3,27.6,29.62,WSW,239,2.0,5.0,86,0.00,,---,0.03,VWS V14.01,2013-03-19 03:22:00,
2013-03-18 23:27:00,30.9,27.2,29.62,SW,223,4.0,5.0,86,0.00,,---,0.03,VWS V14.01,2013-03-19 03:27:00,
2013-03-18 23:32:00,30.6,26.6,29.64,SW,224,4.0,10.0,85,0.00,,---,0.03,VWS V14.01,2013-03-19 03:32:00,
2013-03-18 23:37:00,30.2,26.0,29.64,WSW,252,5.0,5.0,84,0.00,,---,0.03,VWS V14.01,2013-03-19 03:37:00,
2013-03-18 23:43:00,30.0,25.5,29.64,South,184,2.0,10.0,83,0.00,,---,0.03,VWS V14.01,2013-03-19 03:43:00,
2013-03-18 23:48:00,29.8,25.3,29.64,West,262,7.0,9.0,83,0.00,,---,0.03,VWS V14.01,2013-03-19 03:48:00,
2013-03-18 23:52:00,29.5,24.7,29.64,WSW,242,3.0,9.0,82,0.00,,---,0.03,VWS V14.01,2013-03-19 03:52:00,
2013-03-18 23:57:00,29.3,24.5,29.64,SE,135,4.0,10.0,82,0.00,,---,0.03,VWS V14.01,2013-03-19 03:57:00,